createdAt,value
2019-03-25T00:03:24.090Z,7.16
2019-03-25T00:07:31.616Z,7.17
2019-03-25T00:11:39.244Z,7.08
2019-03-25T00:15:46.837Z,7.09
2019-03-25T00:19:54.382Z,7.09
2019-03-25T00:24:01.962Z,7.07
2019-03-25T00:28:09.575Z,7.02
2019-03-25T00:32:17.108Z,7.06
2019-03-25T00:36:24.728Z,7.05
2019-03-25T00:40:32.257Z,7.05
2019-03-25T00:44:39.867Z,7.00
2019-03-25T00:48:47.363Z,6.99
2019-03-25T00:52:54.855Z,7.01
2019-03-25T00:57:02.466Z,6.98
2019-03-25T01:01:17.292Z,7.00
2019-03-25T01:05:25.480Z,6.97
2019-03-25T01:09:33.189Z,6.90
2019-03-25T01:13:40.930Z,6.91
2019-03-25T01:17:48.618Z,6.83
2019-03-25T01:21:56.201Z,6.84
2019-03-25T01:26:03.743Z,6.74
2019-03-25T01:30:12.371Z,6.68
2019-03-25T01:34:20.132Z,6.67
2019-03-25T01:38:27.719Z,6.62
2019-03-25T01:42:35.221Z,6.54
2019-03-25T01:46:42.812Z,6.47
2019-03-25T01:50:50.524Z,6.36
2019-03-25T01:54:58.180Z,6.34
2019-03-25T01:59:06.851Z,6.28
2019-03-25T02:03:14.559Z,6.29
2019-03-25T02:07:22.262Z,6.10
2019-03-25T02:11:30.741Z,6.13
2019-03-25T02:15:38.315Z,6.00
2019-03-25T02:19:45.844Z,6.01
2019-03-25T02:23:54.118Z,6.05
2019-03-25T02:28:01.787Z,6.04
2019-03-25T02:32:09.400Z,5.90
2019-03-25T02:36:16.968Z,5.90
2019-03-25T02:40:24.443Z,5.87
2019-03-25T02:44:32.144Z,5.90
2019-03-25T02:48:40.034Z,5.67
2019-03-25T02:52:47.638Z,5.73
2019-03-25T02:56:55.372Z,5.66
2019-03-25T03:01:03.084Z,5.48
2019-03-25T03:05:10.729Z,5.57
2019-03-25T03:09:18.480Z,5.52
2019-03-25T03:13:26.135Z,5.64
2019-03-25T03:17:33.816Z,5.71
2019-03-25T03:21:41.594Z,5.74
2019-03-25T03:25:57.037Z,5.73
2019-03-25T03:29:58.450Z,5.71
2019-03-25T03:34:06.099Z,5.84
2019-03-25T03:38:13.686Z,5.85
2019-03-25T03:42:21.353Z,5.94
2019-03-25T03:46:28.980Z,5.95
2019-03-25T03:50:36.583Z,5.96
2019-03-25T03:54:45.015Z,5.90
2019-03-25T03:58:52.993Z,5.75
2019-03-25T04:03:01.004Z,5.77
2019-03-25T04:07:08.559Z,5.76
2019-03-25T04:11:17.400Z,5.75
2019-03-25T04:15:35.998Z,5.53
2019-03-25T04:19:43.668Z,5.45
2019-03-25T04:23:51.367Z,5.29
2019-03-25T04:27:59.131Z,5.26
2019-03-25T04:32:06.884Z,5.17
2019-03-25T04:36:14.611Z,5.22
2019-03-25T04:40:22.255Z,5.05
2019-03-25T04:44:30.108Z,4.98
2019-03-25T04:48:37.623Z,5.01
2019-03-25T04:52:45.170Z,4.91
2019-03-25T04:56:52.731Z,4.88
2019-03-25T05:01:00.465Z,4.78
2019-03-25T05:05:09.445Z,4.60
2019-03-25T05:09:18.060Z,4.64
2019-03-25T05:13:27.240Z,4.60
2019-03-25T05:17:34.720Z,4.62
2019-03-25T05:21:42.450Z,4.55
2019-03-25T05:25:50.149Z,4.68
2019-03-25T05:29:57.682Z,4.60
2019-03-25T05:34:07.642Z,4.62
2019-03-25T05:38:15.246Z,4.80
2019-03-25T05:42:23.009Z,4.94
2019-03-25T05:46:31.721Z,5.06
2019-03-25T05:50:42.284Z,5.19
2019-03-25T05:54:50.142Z,5.30
2019-03-25T05:59:05.873Z,5.32
2019-03-25T06:03:16.917Z,5.48
2019-03-25T06:07:24.933Z,5.66
2019-03-25T06:11:32.608Z,5.60
2019-03-25T06:15:40.207Z,5.49
2019-03-25T06:19:47.933Z,5.64
2019-03-25T06:23:55.586Z,5.60
2019-03-25T06:28:03.167Z,5.91
2019-03-25T06:32:10.876Z,5.98
2019-03-25T06:36:19.701Z,5.95
2019-03-25T06:40:27.376Z,6.25
2019-03-25T06:44:34.940Z,6.20
2019-03-25T06:48:42.441Z,6.25
2019-03-25T06:52:50.184Z,6.47
2019-03-25T06:56:58.009Z,6.30
2019-03-25T07:01:05.627Z,6.20
2019-03-25T07:05:14.628Z,6.28
2019-03-25T07:09:22.194Z,6.53
2019-03-25T07:13:30.348Z,6.62
2019-03-25T07:17:38.167Z,6.75
2019-03-25T07:21:49.329Z,6.72
2019-03-25T07:25:57.111Z,6.65
2019-03-25T07:30:05.239Z,6.69
2019-03-25T07:34:14.176Z,6.82
2019-03-25T07:38:22.084Z,6.93
2019-03-25T07:42:29.588Z,6.98
2019-03-25T07:46:37.395Z,6.66
2019-03-25T07:50:44.970Z,6.60
2019-03-25T07:54:55.090Z,6.50
2019-03-25T07:59:02.912Z,6.86
2019-03-25T08:03:10.800Z,6.75
2019-03-25T08:07:27.925Z,6.71
2019-03-25T08:11:39.981Z,6.66
2019-03-25T08:15:47.716Z,6.20
2019-03-25T08:19:55.678Z,6.42
2019-03-25T08:24:03.389Z,6.54
2019-03-25T08:28:11.134Z,7.27
2019-03-25T08:32:19.127Z,7.82
2019-03-25T08:36:27.222Z,8.44
2019-03-25T08:40:34.923Z,9.23
2019-03-25T08:44:42.599Z,9.36
2019-03-25T08:48:50.190Z,10.02
2019-03-25T08:52:57.746Z,10.78
2019-03-25T08:57:05.269Z,10.87
2019-03-25T09:01:14.933Z,10.03
2019-03-25T09:05:22.791Z,9.96
2019-03-25T09:09:30.624Z,9.93
2019-03-25T09:13:38.132Z,9.76
2019-03-25T09:17:45.800Z,9.81
2019-03-25T09:21:53.209Z,9.89
2019-03-25T09:26:00.828Z,10.62
2019-03-25T09:30:11.099Z,11.47
2019-03-25T09:34:18.855Z,11.68
2019-03-25T09:38:26.517Z,11.77
2019-03-25T09:42:34.059Z,12.86
2019-03-25T09:46:41.789Z,12.48
2019-03-25T09:50:50.481Z,12.94
2019-03-25T09:54:59.299Z,12.79
2019-03-25T09:59:09.035Z,12.89
2019-03-25T10:03:16.783Z,12.98
2019-03-25T10:07:28.309Z,12.56
2019-03-25T10:11:35.760Z,12.00
2019-03-25T10:15:44.931Z,12.14
2019-03-25T10:19:53.367Z,11.63
2019-03-25T10:24:01.317Z,11.28
2019-03-25T10:28:09.133Z,10.73
2019-03-25T10:32:17.138Z,10.38
2019-03-25T10:36:25.004Z,10.23
2019-03-25T10:40:33.303Z,10.27
2019-03-25T10:44:41.238Z,8.74
2019-03-25T10:48:49.515Z,8.41
2019-03-25T10:52:57.505Z,8.62
2019-03-25T10:57:05.353Z,8.34
2019-03-25T11:01:13.166Z,9.70
2019-03-25T11:05:20.977Z,10.44
2019-03-25T11:09:28.636Z,10.62
2019-03-25T11:13:36.236Z,10.45
2019-03-25T11:17:45.545Z,9.97
2019-03-25T11:21:53.147Z,9.56
2019-03-25T11:26:01.013Z,9.29
2019-03-25T11:30:10.128Z,9.29
2019-03-25T11:34:17.753Z,8.64
2019-03-25T11:38:25.614Z,8.37
2019-03-25T11:42:36.506Z,8.20
2019-03-25T11:46:45.056Z,8.41
2019-03-25T11:50:57.026Z,8.54
2019-03-25T11:55:11.537Z,9.24
2019-03-25T11:59:22.415Z,9.15
2019-03-25T12:03:30.851Z,9.53
2019-03-25T12:07:39.955Z,10.09
2019-03-25T12:11:48.862Z,10.81
2019-03-25T12:15:57.846Z,11.68
2019-03-25T12:20:11.557Z,12.97
2019-03-25T12:24:21.251Z,12.06
2019-03-25T12:28:33.623Z,12.88
2019-03-25T12:32:48.915Z,11.56
2019-03-25T12:37:03.833Z,12.87
2019-03-25T12:41:23.093Z,11.61
2019-03-25T12:45:35.199Z,11.69
2019-03-25T12:49:42.711Z,11.91
2019-03-25T12:53:51.745Z,12.47
2019-03-25T12:57:59.446Z,13.47
2019-03-25T13:02:10.738Z,13.62
2019-03-25T13:06:18.337Z,14.75
2019-03-25T13:10:29.733Z,13.78
2019-03-25T13:14:37.691Z,12.73
2019-03-25T13:18:54.360Z,11.42
2019-03-25T13:23:02.103Z,11.43
2019-03-25T13:27:09.681Z,10.48
2019-03-25T13:31:17.164Z,10.58
2019-03-25T13:35:24.708Z,11.02
2019-03-25T13:39:32.239Z,11.17
2019-03-25T13:43:39.787Z,12.07
2019-03-25T13:47:47.316Z,12.63
2019-03-25T13:51:55.694Z,12.18
2019-03-25T13:56:04.326Z,12.35
2019-03-25T14:00:13.762Z,11.79
2019-03-25T14:04:21.315Z,11.22
2019-03-25T14:08:29.933Z,10.78
2019-03-25T14:12:37.558Z,10.34
2019-03-25T14:16:46.179Z,10.18
2019-03-25T14:20:53.747Z,9.76
2019-03-25T14:25:01.859Z,9.85
2019-03-25T14:29:09.334Z,9.72
2019-03-25T14:33:16.872Z,10.11
2019-03-25T14:37:25.907Z,10.80
2019-03-25T14:41:33.605Z,10.90
2019-03-25T14:45:41.301Z,11.26
2019-03-25T14:49:48.805Z,11.47
2019-03-25T14:53:56.487Z,11.01
2019-03-25T14:58:04.080Z,11.06
2019-03-25T15:02:11.868Z,11.28
2019-03-25T15:06:20.811Z,11.42
2019-03-25T15:10:28.377Z,10.92
2019-03-25T15:14:36.121Z,10.88
2019-03-25T15:18:43.910Z,10.69
2019-03-25T15:22:51.550Z,10.22
2019-03-25T15:26:59.205Z,9.75
2019-03-25T15:31:06.978Z,9.85
2019-03-25T15:35:14.814Z,9.82
2019-03-25T15:39:24.311Z,9.42
2019-03-25T15:43:32.175Z,9.27
2019-03-25T15:47:40.694Z,9.30
2019-03-25T15:51:48.704Z,9.14
2019-03-25T15:55:56.221Z,9.07
2019-03-25T16:00:03.995Z,8.74
2019-03-25T16:04:12.018Z,9.10
2019-03-25T16:08:19.880Z,8.91
2019-03-25T16:12:27.443Z,8.92
2019-03-25T16:16:35.166Z,8.85
2019-03-25T16:20:42.725Z,8.96
2019-03-25T16:24:50.295Z,8.92
2019-03-25T16:28:57.798Z,8.72
2019-03-25T16:33:05.383Z,8.76
2019-03-25T16:37:13.066Z,8.78
2019-03-25T16:41:20.707Z,8.79
2019-03-25T16:45:28.492Z,8.84
2019-03-25T16:49:36.045Z,8.87
2019-03-25T16:53:43.731Z,8.63
2019-03-25T16:57:51.365Z,8.31
2019-03-25T17:02:01.044Z,8.28
2019-03-25T17:06:08.685Z,8.19
2019-03-25T17:10:16.450Z,8.23
2019-03-25T17:14:24.075Z,8.10
2019-03-25T17:18:31.793Z,8.07
2019-03-25T17:22:39.411Z,7.99
2019-03-25T17:26:46.948Z,7.78
2019-03-25T17:30:54.507Z,7.56
2019-03-25T17:35:02.156Z,7.61
2019-03-25T17:39:11.437Z,7.49
2019-03-25T17:43:19.913Z,7.03
2019-03-25T17:47:27.445Z,7.16
2019-03-25T17:51:35.118Z,7.12
2019-03-25T17:55:42.607Z,7.08
2019-03-25T17:59:50.211Z,7.19
2019-03-25T18:03:59.121Z,7.17
2019-03-25T18:08:06.790Z,7.16
2019-03-25T18:12:14.423Z,7.01
2019-03-25T18:16:22.587Z,6.87
2019-03-25T18:20:31.358Z,6.92
2019-03-25T18:24:41.895Z,6.88
2019-03-25T18:28:49.645Z,6.82
2019-03-25T18:32:58.051Z,6.64
2019-03-25T18:37:05.947Z,6.68
2019-03-25T18:41:13.746Z,6.67
2019-03-25T18:45:21.265Z,6.56
2019-03-25T18:49:28.924Z,6.53
2019-03-25T18:53:37.205Z,6.50
2019-03-25T18:57:44.838Z,6.52
2019-03-25T19:01:54.773Z,6.49
2019-03-25T19:06:02.226Z,6.47
2019-03-25T19:10:14.779Z,6.41
2019-03-25T19:14:23.418Z,6.35
2019-03-25T19:18:31.094Z,6.27
2019-03-25T19:22:38.710Z,6.15
2019-03-25T19:26:47.443Z,6.16
2019-03-25T19:30:55.111Z,6.16
2019-03-25T19:35:04.046Z,6.10
2019-03-25T19:39:11.661Z,6.15
2019-03-25T19:43:19.264Z,6.01
2019-03-25T19:47:26.945Z,5.92
2019-03-25T19:51:35.032Z,5.98
2019-03-25T19:55:42.720Z,6.00
2019-03-25T19:59:50.253Z,6.00
2019-03-25T20:03:58.124Z,6.02
2019-03-25T20:08:05.983Z,6.02
2019-03-25T20:12:13.954Z,6.12
2019-03-25T20:16:22.678Z,6.14
2019-03-25T20:20:31.290Z,6.19
2019-03-25T20:24:38.875Z,6.26
2019-03-25T20:28:46.812Z,6.25
2019-03-25T20:32:54.565Z,6.18
2019-03-25T20:37:02.240Z,6.25
2019-03-25T20:41:09.872Z,6.32
2019-03-25T20:45:18.443Z,6.32
2019-03-25T20:49:26.211Z,6.43
2019-03-25T20:53:33.955Z,6.41
2019-03-25T20:57:41.672Z,6.32
2019-03-25T21:01:49.448Z,6.26
2019-03-25T21:05:57.090Z,6.23
2019-03-25T21:10:05.892Z,6.21
2019-03-25T21:14:22.415Z,6.18
2019-03-25T21:18:30.746Z,6.11
2019-03-25T21:22:38.551Z,6.14
2019-03-25T21:26:46.336Z,6.03
2019-03-25T21:30:53.896Z,6.84
2019-03-25T21:35:01.598Z,6.18
2019-03-25T21:39:09.952Z,6.16
2019-03-25T21:43:17.472Z,6.16
2019-03-25T21:47:25.069Z,6.16
2019-03-25T21:51:32.667Z,6.17
2019-03-25T21:55:40.185Z,6.15
2019-03-25T21:59:47.736Z,6.18
2019-03-25T22:03:55.528Z,6.14
2019-03-25T22:08:04.414Z,6.13
2019-03-25T22:12:11.935Z,6.14
2019-03-25T22:16:19.498Z,6.13
2019-03-25T22:20:27.114Z,6.21
2019-03-25T22:24:34.582Z,6.24
2019-03-25T22:28:42.568Z,6.34
2019-03-25T22:32:50.132Z,6.44
2019-03-25T22:36:57.704Z,6.37
2019-03-25T22:41:05.347Z,6.40
2019-03-25T22:45:13.270Z,6.41
2019-03-25T22:49:20.649Z,6.53
2019-03-25T22:53:28.197Z,6.54
2019-03-25T22:57:35.792Z,6.55
2019-03-25T23:01:43.372Z,6.44
2019-03-25T23:05:50.882Z,6.52
2019-03-25T23:09:58.481Z,6.50
2019-03-25T23:14:06.009Z,6.42
2019-03-25T23:18:13.646Z,6.46
2019-03-25T23:22:21.125Z,6.41
2019-03-25T23:26:28.684Z,6.42
2019-03-25T23:30:36.203Z,6.42
2019-03-25T23:34:43.807Z,6.33
2019-03-25T23:38:51.322Z,6.29
2019-03-25T23:42:58.915Z,6.22
2019-03-25T23:47:06.531Z,6.23
2019-03-25T23:51:14.089Z,6.13
2019-03-25T23:55:21.597Z,6.03
2019-03-25T23:59:29.185Z,6.09
